地図

経路データ

SID SEASON NUMBER BASIN SUBBASIN NAME ISO_TIME NATURE LAT LON WMO_WIND WMO_PRES WMO_AGENCY TRACK_TYPE DIST2LAND LANDFALL IFLAG USA_AGENCY USA_ATCF_ID USA_LAT USA_LON USA_RECORD USA_STATUS USA_WIND USA_PRES USA_SSHS USA_R34_NE USA_R34_SE USA_R34_SW USA_R34_NW USA_R50_NE USA_R50_SE USA_R50_SW USA_R50_NW USA_R64_NE USA_R64_SE USA_R64_SW USA_R64_NW USA_POCI USA_ROCI USA_RMW USA_EYE TOKYO_LAT TOKYO_LON TOKYO_GRADE TOKYO_WIND TOKYO_PRES TOKYO_R50_DIR TOKYO_R50_LONG TOKYO_R50_SHORT TOKYO_R30_DIR TOKYO_R30_LONG TOKYO_R30_SHORT TOKYO_LAND CMA_LAT CMA_LON CMA_CAT CMA_WIND CMA_PRES HKO_LAT HKO_LON HKO_CAT HKO_WIND HKO_PRES NEWDELHI_LAT NEWDELHI_LON NEWDELHI_GRADE NEWDELHI_WIND NEWDELHI_PRES NEWDELHI_CI NEWDELHI_DP NEWDELHI_POCI REUNION_LAT REUNION_LON REUNION_TYPE REUNION_WIND REUNION_PRES REUNION_TNUM REUNION_CI REUNION_RMW REUNION_R34_NE REUNION_R34_SE REUNION_R34_SW REUNION_R34_NW REUNION_R50_NE REUNION_R50_SE REUNION_R50_SW REUNION_R50_NW REUNION_R64_NE REUNION_R64_SE REUNION_R64_SW REUNION_R64_NW BOM_LAT BOM_LON BOM_TYPE BOM_WIND BOM_PRES BOM_TNUM BOM_CI BOM_RMW BOM_R34_NE BOM_R34_SE BOM_R34_SW BOM_R34_NW BOM_R50_NE BOM_R50_SE BOM_R50_SW BOM_R50_NW BOM_R64_NE BOM_R64_SE BOM_R64_SW BOM_R64_NW BOM_ROCI BOM_POCI BOM_EYE BOM_POS_METHOD BOM_PRES_METHOD NADI_LAT NADI_LON NADI_CAT NADI_WIND NADI_PRES WELLINGTON_LAT WELLINGTON_LON WELLINGTON_WIND WELLINGTON_PRES DS824_LAT DS824_LON DS824_STAGE DS824_WIND DS824_PRES TD9636_LAT TD9636_LON TD9636_STAGE TD9636_WIND TD9636_PRES TD9635_LAT TD9635_LON TD9635_WIND TD9635_PRES TD9635_ROCI NEUMANN_LAT NEUMANN_LON NEUMANN_CLASS NEUMANN_WIND NEUMANN_PRES MLC_LAT MLC_LON MLC_CLASS MLC_WIND MLC_PRES USA_GUST BOM_GUST BOM_GUST_PER REUNION_GUST REUNION_GUST_PER USA_SEAHGT USA_SEARAD_NE USA_SEARAD_SE USA_SEARAD_SW USA_SEARAD_NW STORM_SPEED STORM_DIR
1901325S09069 1902 47 SI MM NOT_NAMED 1901-11-21 06:00:00 NR -8.70000 68.8000 reunion main 1747 1724 _____O________ -1 -8.70000 68.8000 99 9.90000 4 240
1901325S09069 1902 47 SI MM NOT_NAMED 1901-11-21 09:00:00 NR -8.79106 68.6399 main 1724 1708 _____P________ -1 -8.79106 68.6399 99 4 240
1901325S09069 1902 47 SI MM NOT_NAMED 1901-11-21 12:00:00 NR -8.88294 68.4783 main 1708 1685 _____P________ -1 -8.88294 68.4783 99 4 240
1901325S09069 1902 47 SI MM NOT_NAMED 1901-11-21 15:00:00 NR -8.97650 68.3138 main 1685 1670 _____P________ -1 -8.97650 68.3138 99 4 240
1901325S09069 1902 47 SI MM NOT_NAMED 1901-11-21 18:00:00 NR -9.07262 68.1451 main 1662 1647 _____P________ -1 -9.07262 68.1451 99 4 240
1901325S09069 1902 47 SI MM NOT_NAMED 1901-11-21 21:00:00 NR -9.17216 67.9708 main 1647 1624 _____P________ -1 -9.17216 67.9708 99 4 240
1901325S09069 1902 47 SI MM NOT_NAMED 1901-11-22 00:00:00 NR -9.27599 67.7895 main 1624 1601 _____P________ -1 -9.27599 67.7895 99 4 240
1901325S09069 1902 47 SI MM NOT_NAMED 1901-11-22 03:00:00 NR -9.38499 67.5997 main 1601 1578 _____P________ -1 -9.38499 67.5997 99 4 240
1901325S09069 1902 47 SI MM NOT_NAMED 1901-11-22 06:00:00 NR -9.50000 67.4000 reunion main 1578 1556 _____O________ -1 -9.50000 67.4000 99 9.90000 5 240
1901325S09069 1902 47 SI MM NOT_NAMED 1901-11-22 09:00:00 NR -9.62162 67.1895 main 1556 1533 _____P________ -1 -9.62162 67.1895 99 5 240
1901325S09069 1902 47 SI MM NOT_NAMED 1901-11-22 12:00:00 NR -9.74932 66.9689 main 1533 1502 _____P________ -1 -9.74932 66.9689 99 5 240
1901325S09069 1902 47 SI MM NOT_NAMED 1901-11-22 15:00:00 NR -9.88235 66.7395 main 1495 1472 _____P________ -1 -9.88235 66.7395 99 5 240
1901325S09069 1902 47 SI MM NOT_NAMED 1901-11-22 18:00:00 NR -10.0199 66.5023 main 1472 1441 _____P________ -1 -10.0199 66.5023 99 6 240
1901325S09069 1902 47 SI MM NOT_NAMED 1901-11-22 21:00:00 NR -10.1612 66.2585 main 1441 1412 _____P________ -1 -10.1612 66.2585 99 6 239
1901325S09069 1902 47 SI MM NOT_NAMED 1901-11-23 00:00:00 NR -10.3055 66.0095 main 1412 1390 _____P________ -1 -10.3055 66.0095 99 6 240
1901325S09069 1902 47 SI MM NOT_NAMED 1901-11-23 03:00:00 NR -10.4520 65.7562 main 1381 1352 _____P________ -1 -10.4520 65.7562 99 6 239
1901325S09069 1902 47 SI MM NOT_NAMED 1901-11-23 06:00:00 NR -10.6000 65.5000 reunion main 1352 1330 _____O________ -1 -10.6000 65.5000 99 9.90000 6 240
1901325S09069 1902 47 SI MM NOT_NAMED 1901-11-23 09:00:00 NR -10.7453 65.2448 main 1323 1292 _____P________ -1 -10.7453 65.2448 99 6 240
1901325S09069 1902 47 SI MM NOT_NAMED 1901-11-23 12:00:00 NR -10.8927 64.9852 main 1292 1264 _____P________ -1 -10.8927 64.9852 99 6 240
1901325S09069 1902 47 SI MM NOT_NAMED 1901-11-23 15:00:00 NR -11.0419 64.7223 main 1264 1233 _____P________ -1 -11.0419 64.7223 99 6 240
1901325S09069 1902 47 SI MM NOT_NAMED 1901-11-23 18:00:00 NR -11.1924 64.4573 main 1233 1205 _____P________ -1 -11.1924 64.4573 99 6 240
1901325S09069 1902 47 SI MM NOT_NAMED 1901-11-23 21:00:00 NR -11.3438 64.1914 main 1205 1168 _____P________ -1 -11.3438 64.1914 99 6 240
1901325S09069 1902 47 SI MM NOT_NAMED 1901-11-24 00:00:00 NR -11.4958 63.9257 main 1168 1147 _____P________ -1 -11.4958 63.9257 99 6 240
1901325S09069 1902 47 SI MM NOT_NAMED 1901-11-24 03:00:00 NR -11.6480 63.6615 main 1147 1110 _____P________ -1 -11.6480 63.6615 99 6 239
1901325S09069 1902 47 SI MM NOT_NAMED 1901-11-24 06:00:00 NR -11.8000 63.4000 reunion main 1110 1089 _____O________ -1 -11.8000 63.4000 99 9.90000 6 239
1901325S09069 1902 47 SI MM NOT_NAMED 1901-11-24 09:00:00 NR -11.9381 63.1619 main 1089 1053 _____P________ -1 -11.9381 63.1619 99 5 239
1901325S09069 1902 47 SI MM NOT_NAMED 1901-11-24 12:00:00 NR -12.0748 62.9282 main 1053 1032 _____P________ -1 -12.0748 62.9282 99 5 239
1901325S09069 1902 47 SI MM NOT_NAMED 1901-11-24 15:00:00 NR -12.2126 62.6948 main 1032 1012 _____P________ -1 -12.2126 62.6948 99 5 239
1901325S09069 1902 47 SI MM NOT_NAMED 1901-11-24 18:00:00 NR -12.3537 62.4581 main 1002 976 _____P________ -1 -12.3537 62.4581 99 6 238
1901325S09069 1902 47 SI MM NOT_NAMED 1901-11-24 21:00:00 NR -12.5007 62.2141 main 976 956 _____P________ -1 -12.5007 62.2141 99 6 238
1901325S09069 1902 47 SI MM NOT_NAMED 1901-11-25 00:00:00 NR -12.6559 61.9591 main 946 921 _____P________ -1 -12.6559 61.9591 99 6 238
1901325S09069 1902 47 SI MM NOT_NAMED 1901-11-25 03:00:00 NR -12.8215 61.6890 main 921 886 _____P________ -1 -12.8215 61.6890 99 6 238
1901325S09069 1902 47 SI MM NOT_NAMED 1901-11-25 06:00:00 NR -13.0000 61.4000 reunion main 886 852 _____O________ -1 -13.0000 61.4000 99 9.90000 7 239
1901325S09069 1902 47 SI MM NOT_NAMED 1901-11-25 09:00:00 NR -13.1659 61.1101 main 852 829 _____P________ -1 -13.1659 61.1101 99 7 240
1901325S09069 1902 47 SI MM NOT_NAMED 1901-11-25 12:00:00 NR -13.3407 60.8051 main 829 796 _____P________ -1 -13.3407 60.8051 99 7 239
1901325S09069 1902 47 SI MM NOT_NAMED 1901-11-25 15:00:00 NR -13.5283 60.4822 main 796 763 _____P________ -1 -13.5283 60.4822 99 8 239
1901325S09069 1902 47 SI MM NOT_NAMED 1901-11-25 18:00:00 NR -13.7328 60.1388 main 760 728 _____P________ -1 -13.7328 60.1388 99 8 238
1901325S09069 1902 47 SI MM NOT_NAMED 1901-11-25 21:00:00 NR -13.9583 59.7718 main 718 684 _____P________ -1 -13.9583 59.7718 99 9 237
1901325S09069 1902 47 SI MM NOT_NAMED 1901-11-26 00:00:00 NR -14.2086 59.3784 main 684 641 _____P________ -1 -14.2086 59.3784 99 10 236
1901325S09069 1902 47 SI MM NOT_NAMED 1901-11-26 03:00:00 NR -14.4879 58.9555 main 641 599 _____P________ -1 -14.4879 58.9555 99 10 235
1901325S09069 1902 47 SI MM NOT_NAMED 1901-11-26 06:00:00 NR -14.8000 58.5000 reunion main 599 560 _____O________ -1 -14.8000 58.5000 99 9.90000 12 238
1901325S09069 1902 47 SI MM NOT_NAMED 1901-11-26 09:00:00 NR -15.1060 57.9244 main 559 526 _____P________ -1 -15.1060 57.9244 99 13 241
1901325S09069 1902 47 SI MM NOT_NAMED 1901-11-26 12:00:00 NR -15.4399 57.3027 main 526 488 _____P________ -1 -15.4399 57.3027 99 14 240
1901325S09069 1902 47 SI MM NOT_NAMED 1901-11-26 15:00:00 NR -15.8042 56.6580 main 488 460 _____P________ -1 -15.8042 56.6580 99 15 238
1901325S09069 1902 47 SI MM NOT_NAMED 1901-11-26 18:00:00 NR -16.2022 56.0132 main 464 444 _____P________ -1 -16.2022 56.0132 99 15 236
1901325S09069 1902 47 SI MM NOT_NAMED 1901-11-26 21:00:00 NR -16.6370 55.3917 main 449 433 _____P________ -1 -16.6370 55.3917 99 15 232
1901325S09069 1902 47 SI MM NOT_NAMED 1901-11-27 00:00:00 NR -17.1123 54.8166 main 439 391 _____P________ -1 -17.1123 54.8166 99 14 226
1901325S09069 1902 47 SI MM NOT_NAMED 1901-11-27 03:00:00 NR -17.6319 54.3114 main 394 345 _____P________ -1 -17.6319 54.3114 99 14 219
1901325S09069 1902 47 SI MM NOT_NAMED 1901-11-27 06:00:00 NR -18.2000 53.9000 reunion main 345 303 _____O________ -1 -18.2000 53.9000 99 9.90000 15 210
1901325S09069 1902 47 SI MM NOT_NAMED 1901-11-27 09:00:00 NR -18.8834 53.5503 main 294 259 _____P________ -1 -18.8834 53.5503 99 16 202
1901325S09069 1902 47 SI MM NOT_NAMED 1901-11-27 12:00:00 NR -19.6284 53.2774 main 259 231 _____P________ -1 -19.6284 53.2774 99 16 196
1901325S09069 1902 47 SI MM NOT_NAMED 1901-11-27 15:00:00 NR -20.4121 53.0869 main 231 225 _____P________ -1 -20.4121 53.0869 99 16 190
1901325S09069 1902 47 SI MM NOT_NAMED 1901-11-27 18:00:00 NR -21.2115 52.9853 main 228 228 _____P________ -1 -21.2115 52.9853 99 16 184
1901325S09069 1902 47 SI MM NOT_NAMED 1901-11-27 21:00:00 NR -22.0034 52.9789 main 248 248 _____P________ -1 -22.0034 52.9789 99 16 177
1901325S09069 1902 47 SI MM NOT_NAMED 1901-11-28 00:00:00 NR -22.7644 53.0747 main 281 281 _____P________ -1 -22.7644 53.0747 99 15 169
1901325S09069 1902 47 SI MM NOT_NAMED 1901-11-28 03:00:00 NR -23.4712 53.2794 main 320 320 _____P________ -1 -23.4712 53.2794 99 14 160
1901325S09069 1902 47 SI MM NOT_NAMED 1901-11-28 06:00:00 NR -24.1000 53.6000 reunion main 358 358 _____O________ -1 -24.1000 53.6000 99 9.90000 14 147
1901325S09069 1902 47 SI MM NOT_NAMED 1901-11-28 09:00:00 NR -24.6103 54.1011 main 388 388 _____P________ -1 -24.6103 54.1011 99 14 133
1901325S09069 1902 47 SI MM NOT_NAMED 1901-11-28 12:00:00 NR -25.0518 54.7406 main 423 419 _____P________ -1 -25.0518 54.7406 99 15 123
1901325S09069 1902 47 SI MM NOT_NAMED 1901-11-28 15:00:00 NR -25.4281 55.4803 main 447 447 _____P________ -1 -25.4281 55.4803 99 16 116
1901325S09069 1902 47 SI MM NOT_NAMED 1901-11-28 18:00:00 NR -25.7433 56.2813 main 485 485 _____P________ -1 -25.7433 56.2813 99 16 111
1901325S09069 1902 47 SI MM NOT_NAMED 1901-11-28 21:00:00 NR -26.0021 57.1039 main 536 536 _____P________ -1 -26.0021 57.1039 99 15 108
1901325S09069 1902 47 SI MM NOT_NAMED 1901-11-29 00:00:00 NR -26.2100 57.9080 main 585 585 _____P________ -1 -26.2100 57.9080 99 14 105
1901325S09069 1902 47 SI MM NOT_NAMED 1901-11-29 03:00:00 NR -26.3736 58.6534 main 641 641 _____P________ -1 -26.3736 58.6534 99 13 103
1901325S09069 1902 47 SI MM NOT_NAMED 1901-11-29 06:00:00 NR -26.5000 59.3000 reunion main 681 681 _____O________ -1 -26.5000 59.3000 99 9.90000 11 102
1901325S09069 1902 47 SI MM NOT_NAMED 1901-11-29 09:00:00 NR -26.5966 59.8174 main 714 714 _____P________ -1 -26.5966 59.8174 99 8 102
1901325S09069 1902 47 SI MM NOT_NAMED 1901-11-29 12:00:00 NR -26.6686 60.2131 main 738 738 _____P________ -1 -26.6686 60.2131 99 6 101
1901325S09069 1902 47 SI MM NOT_NAMED 1901-11-29 15:00:00 NR -26.7203 60.5043 main 749 749 _____P________ -1 -26.7203 60.5043 99 5 101
1901325S09069 1902 47 SI MM NOT_NAMED 1901-11-29 18:00:00 NR -26.7555 60.7082 main 767 767 _____P________ -1 -26.7555 60.7082 99 3 101
1901325S09069 1902 47 SI MM NOT_NAMED 1901-11-29 21:00:00 NR -26.7778 60.8423 main 771 771 _____P________ -1 -26.7778 60.8423 99 2 100
1901325S09069 1902 47 SI MM NOT_NAMED 1901-11-30 00:00:00 NR -26.7905 60.9240 main 775 775 _____P________ -1 -26.7905 60.9240 99 1 100
1901325S09069 1902 47 SI MM NOT_NAMED 1901-11-30 03:00:00 NR -26.7968 60.9708 main 780 780 _____P________ -1 -26.7968 60.9708 99 1 98
1901325S09069 1902 47 SI MM NOT_NAMED 1901-11-30 06:00:00 NR -26.8000 61.0000 reunion main 780 _____O________ -1 -26.8000 61.0000 99 9.90000 1 0

IBTrACS Databaseについて

本データベースは、米国NOAAが公開する1842年以降の世界の熱帯低気圧のベストトラックデータアーカイブInternational Best Track Archive for Climate Stewardship (IBTrACS)を、ウェブで閲覧しやすい形式に変換したものです。

最終更新日:2021-10-21